sensor_id;sensor_type;location;lat;lon;timestamp;P1;durP1;ratioP1;P2;durP2;ratioP2
16854;SDS011;8543;54.522;18.550;2023-02-28T00:01:10;15.00;;;7.40;;
16854;SDS011;8543;54.522;18.550;2023-02-28T00:03:36;15.20;;;7.20;;
16854;SDS011;8543;54.522;18.550;2023-02-28T00:06:03;18.00;;;8.60;;
16854;SDS011;8543;54.522;18.550;2023-02-28T00:08:29;16.10;;;8.50;;
16854;SDS011;8543;54.522;18.550;2023-02-28T00:10:55;17.70;;;7.20;;
16854;SDS011;8543;54.522;18.550;2023-02-28T00:13:20;18.40;;;8.30;;
16854;SDS011;8543;54.522;18.550;2023-02-28T00:15:46;18.30;;;8.20;;
16854;SDS011;8543;54.522;18.550;2023-02-28T00:18:11;17.50;;;8.00;;
16854;SDS011;8543;54.522;18.550;2023-02-28T00:20:37;14.80;;;7.30;;
16854;SDS011;8543;54.522;18.550;2023-02-28T00:23:02;15.60;;;7.10;;
16854;SDS011;8543;54.522;18.550;2023-02-28T00:25:28;16.90;;;7.20;;
16854;SDS011;8543;54.522;18.550;2023-02-28T00:27:53;17.10;;;7.20;;
16854;SDS011;8543;54.522;18.550;2023-02-28T00:30:20;14.70;;;6.80;;
16854;SDS011;8543;54.522;18.550;2023-02-28T00:32:47;13.80;;;6.40;;
16854;SDS011;8543;54.522;18.550;2023-02-28T00:35:13;14.30;;;6.60;;
16854;SDS011;8543;54.522;18.550;2023-02-28T00:37:38;10.40;;;5.20;;
16854;SDS011;8543;54.522;18.550;2023-02-28T00:40:05;13.20;;;5.60;;
16854;SDS011;8543;54.522;18.550;2023-02-28T00:42:31;16.00;;;6.70;;
16854;SDS011;8543;54.522;18.550;2023-02-28T00:44:57;8.90;;;4.30;;
16854;SDS011;8543;54.522;18.550;2023-02-28T00:47:23;10.00;;;4.60;;
16854;SDS011;8543;54.522;18.550;2023-02-28T00:49:48;14.20;;;6.60;;
16854;SDS011;8543;54.522;18.550;2023-02-28T00:52:13;14.20;;;5.70;;
16854;SDS011;8543;54.522;18.550;2023-02-28T00:54:39;11.60;;;5.40;;
16854;SDS011;8543;54.522;18.550;2023-02-28T00:57:04;11.80;;;5.60;;
16854;SDS011;8543;54.522;18.550;2023-02-28T00:59:30;12.10;;;5.80;;
16854;SDS011;8543;54.522;18.550;2023-02-28T01:01:55;9.20;;;4.50;;
16854;SDS011;8543;54.522;18.550;2023-02-28T01:04:21;11.50;;;5.40;;
16854;SDS011;8543;54.522;18.550;2023-02-28T01:06:46;13.90;;;4.90;;
16854;SDS011;8543;54.522;18.550;2023-02-28T01:09:12;12.40;;;5.30;;
16854;SDS011;8543;54.522;18.550;2023-02-28T01:11:37;12.60;;;4.90;;
16854;SDS011;8543;54.522;18.550;2023-02-28T01:14:04;14.00;;;6.50;;
16854;SDS011;8543;54.522;18.550;2023-02-28T01:16:29;9.60;;;5.20;;
16854;SDS011;8543;54.522;18.550;2023-02-28T01:18:55;7.50;;;3.60;;
16854;SDS011;8543;54.522;18.550;2023-02-28T01:21:21;15.90;;;5.80;;
16854;SDS011;8543;54.522;18.550;2023-02-28T01:23:47;9.40;;;4.50;;
16854;SDS011;8543;54.522;18.550;2023-02-28T01:26:14;11.30;;;5.00;;
16854;SDS011;8543;54.522;18.550;2023-02-28T01:28:44;5.90;;;2.90;;
16854;SDS011;8543;54.522;18.550;2023-02-28T01:31:10;10.70;;;4.60;;
16854;SDS011;8543;54.522;18.550;2023-02-28T01:33:36;8.40;;;4.00;;
16854;SDS011;8543;54.522;18.550;2023-02-28T01:36:06;7.00;;;2.80;;
16854;SDS011;8543;54.522;18.550;2023-02-28T01:38:52;5.30;;;3.00;;
16854;SDS011;8543;54.522;18.550;2023-02-28T01:41:25;6.00;;;3.00;;
16854;SDS011;8543;54.522;18.550;2023-02-28T01:44:01;6.80;;;3.10;;
16854;SDS011;8543;54.522;18.550;2023-02-28T01:46:50;6.20;;;3.40;;
16854;SDS011;8543;54.522;18.550;2023-02-28T01:49:16;8.00;;;2.80;;
16854;SDS011;8543;54.522;18.550;2023-02-28T01:51:43;6.80;;;3.00;;
16854;SDS011;8543;54.522;18.550;2023-02-28T01:54:16;6.30;;;3.10;;
16854;SDS011;8543;54.522;18.550;2023-02-28T01:56:45;7.90;;;3.60;;
16854;SDS011;8543;54.522;18.550;2023-02-28T01:59:14;6.40;;;3.20;;
16854;SDS011;8543;54.522;18.550;2023-02-28T02:01:46;7.10;;;2.80;;
16854;SDS011;8543;54.522;18.550;2023-02-28T02:04:11;7.00;;;3.10;;
16854;SDS011;8543;54.522;18.550;2023-02-28T02:06:38;6.10;;;3.20;;
16854;SDS011;8543;54.522;18.550;2023-02-28T02:09:05;6.70;;;2.80;;
16854;SDS011;8543;54.522;18.550;2023-02-28T02:11:31;9.30;;;3.90;;
16854;SDS011;8543;54.522;18.550;2023-02-28T02:38:10;6.50;;;2.90;;
16854;SDS011;8543;54.522;18.550;2023-02-28T02:43:48;8.90;;;3.80;;
16854;SDS011;8543;54.522;18.550;2023-02-28T02:46:17;9.40;;;4.40;;
16854;SDS011;8543;54.522;18.550;2023-02-28T02:48:46;9.80;;;4.60;;
16854;SDS011;8543;54.522;18.550;2023-02-28T02:51:13;11.50;;;4.70;;
16854;SDS011;8543;54.522;18.550;2023-02-28T02:53:42;10.50;;;4.40;;
16854;SDS011;8543;54.522;18.550;2023-02-28T02:56:14;8.40;;;4.00;;
16854;SDS011;8543;54.522;18.550;2023-02-28T02:58:42;8.40;;;3.90;;
16854;SDS011;8543;54.522;18.550;2023-02-28T03:01:12;10.00;;;4.30;;
16854;SDS011;8543;54.522;18.550;2023-02-28T03:03:41;7.70;;;3.80;;
16854;SDS011;8543;54.522;18.550;2023-02-28T03:06:06;6.50;;;3.10;;
16854;SDS011;8543;54.522;18.550;2023-02-28T03:08:34;7.00;;;3.70;;
16854;SDS011;8543;54.522;18.550;2023-02-28T03:11:03;6.40;;;2.70;;
16854;SDS011;8543;54.522;18.550;2023-02-28T03:13:37;6.90;;;3.20;;
16854;SDS011;8543;54.522;18.550;2023-02-28T03:21:59;7.30;;;3.30;;
16854;SDS011;8543;54.522;18.550;2023-02-28T03:24:32;6.10;;;3.20;;
16854;SDS011;8543;54.522;18.550;2023-02-28T03:30:00;6.40;;;3.30;;
16854;SDS011;8543;54.522;18.550;2023-02-28T03:32:33;6.30;;;3.20;;
16854;SDS011;8543;54.522;18.550;2023-02-28T03:35:02;6.50;;;3.00;;
16854;SDS011;8543;54.522;18.550;2023-02-28T03:37:33;5.90;;;3.10;;
16854;SDS011;8543;54.522;18.550;2023-02-28T03:40:04;7.60;;;3.40;;
16854;SDS011;8543;54.522;18.550;2023-02-28T03:42:33;7.90;;;3.40;;
16854;SDS011;8543;54.522;18.550;2023-02-28T03:45:02;9.00;;;4.10;;
16854;SDS011;8543;54.522;18.550;2023-02-28T03:47:39;8.40;;;3.20;;
16854;SDS011;8543;54.522;18.550;2023-02-28T03:50:10;8.00;;;4.30;;
16854;SDS011;8543;54.522;18.550;2023-02-28T03:55:53;9.70;;;3.80;;
16854;SDS011;8543;54.522;18.550;2023-02-28T03:58:37;8.20;;;3.50;;
16854;SDS011;8543;54.522;18.550;2023-02-28T04:01:21;9.30;;;4.30;;
16854;SDS011;8543;54.522;18.550;2023-02-28T04:03:50;8.80;;;3.90;;
16854;SDS011;8543;54.522;18.550;2023-02-28T04:06:18;7.30;;;3.50;;
16854;SDS011;8543;54.522;18.550;2023-02-28T04:08:44;9.70;;;4.20;;
16854;SDS011;8543;54.522;18.550;2023-02-28T04:13:38;7.10;;;3.70;;
16854;SDS011;8543;54.522;18.550;2023-02-28T04:16:07;5.50;;;3.10;;
16854;SDS011;8543;54.522;18.550;2023-02-28T04:18:37;8.80;;;3.80;;
16854;SDS011;8543;54.522;18.550;2023-02-28T04:21:03;7.90;;;3.30;;
16854;SDS011;8543;54.522;18.550;2023-02-28T04:23:30;6.20;;;3.00;;
16854;SDS011;8543;54.522;18.550;2023-02-28T04:25:55;7.50;;;3.50;;
16854;SDS011;8543;54.522;18.550;2023-02-28T04:28:21;5.20;;;2.40;;
16854;SDS011;8543;54.522;18.550;2023-02-28T04:30:46;9.10;;;3.50;;
16854;SDS011;8543;54.522;18.550;2023-02-28T04:33:12;7.50;;;3.70;;
16854;SDS011;8543;54.522;18.550;2023-02-28T04:35:37;8.40;;;4.20;;
16854;SDS011;8543;54.522;18.550;2023-02-28T04:38:03;9.20;;;5.00;;
16854;SDS011;8543;54.522;18.550;2023-02-28T04:40:29;8.10;;;4.70;;
16854;SDS011;8543;54.522;18.550;2023-02-28T04:42:54;9.90;;;4.50;;
16854;SDS011;8543;54.522;18.550;2023-02-28T04:45:19;8.50;;;4.00;;
16854;SDS011;8543;54.522;18.550;2023-02-28T04:47:45;11.30;;;4.20;;
16854;SDS011;8543;54.522;18.550;2023-02-28T04:50:10;8.30;;;3.90;;
16854;SDS011;8543;54.522;18.550;2023-02-28T04:52:36;7.30;;;3.60;;
16854;SDS011;8543;54.522;18.550;2023-02-28T04:55:01;8.40;;;3.70;;
16854;SDS011;8543;54.522;18.550;2023-02-28T04:57:27;9.70;;;4.10;;
16854;SDS011;8543;54.522;18.550;2023-02-28T04:59:52;9.50;;;3.60;;
16854;SDS011;8543;54.522;18.550;2023-02-28T05:02:18;11.20;;;3.50;;
16854;SDS011;8543;54.522;18.550;2023-02-28T05:04:43;9.60;;;3.90;;
16854;SDS011;8543;54.522;18.550;2023-02-28T05:07:08;6.50;;;3.60;;
16854;SDS011;8543;54.522;18.550;2023-02-28T05:09:34;5.70;;;3.10;;
16854;SDS011;8543;54.522;18.550;2023-02-28T05:12:00;6.60;;;3.30;;
16854;SDS011;8543;54.522;18.550;2023-02-28T05:14:25;7.30;;;3.20;;
16854;SDS011;8543;54.522;18.550;2023-02-28T05:16:51;6.30;;;3.20;;
16854;SDS011;8543;54.522;18.550;2023-02-28T05:19:16;7.20;;;3.60;;
16854;SDS011;8543;54.522;18.550;2023-02-28T05:21:52;6.20;;;3.20;;
16854;SDS011;8543;54.522;18.550;2023-02-28T05:24:18;7.90;;;2.90;;
16854;SDS011;8543;54.522;18.550;2023-02-28T05:26:50;5.40;;;3.10;;
16854;SDS011;8543;54.522;18.550;2023-02-28T05:29:17;6.10;;;3.40;;
16854;SDS011;8543;54.522;18.550;2023-02-28T05:31:43;6.50;;;3.50;;
16854;SDS011;8543;54.522;18.550;2023-02-28T05:34:08;6.20;;;3.20;;
16854;SDS011;8543;54.522;18.550;2023-02-28T05:36:36;11.20;;;3.80;;
16854;SDS011;8543;54.522;18.550;2023-02-28T05:39:02;5.70;;;3.10;;
16854;SDS011;8543;54.522;18.550;2023-02-28T05:41:28;6.60;;;3.30;;
16854;SDS011;8543;54.522;18.550;2023-02-28T05:43:53;7.50;;;3.20;;
16854;SDS011;8543;54.522;18.550;2023-02-28T05:46:19;9.50;;;3.60;;
16854;SDS011;8543;54.522;18.550;2023-02-28T05:48:46;6.40;;;3.80;;
16854;SDS011;8543;54.522;18.550;2023-02-28T05:51:12;6.40;;;3.70;;
16854;SDS011;8543;54.522;18.550;2023-02-28T05:53:37;7.00;;;3.40;;
16854;SDS011;8543;54.522;18.550;2023-02-28T05:56:03;8.20;;;3.80;;
16854;SDS011;8543;54.522;18.550;2023-02-28T05:58:29;6.80;;;3.40;;
16854;SDS011;8543;54.522;18.550;2023-02-28T06:00:59;7.90;;;4.00;;
16854;SDS011;8543;54.522;18.550;2023-02-28T06:03:25;7.10;;;3.60;;
16854;SDS011;8543;54.522;18.550;2023-02-28T06:05:51;6.90;;;3.40;;
16854;SDS011;8543;54.522;18.550;2023-02-28T06:08:17;6.60;;;3.70;;
16854;SDS011;8543;54.522;18.550;2023-02-28T06:10:43;5.70;;;3.50;;
16854;SDS011;8543;54.522;18.550;2023-02-28T06:13:09;6.40;;;3.80;;
16854;SDS011;8543;54.522;18.550;2023-02-28T06:15:34;5.80;;;3.90;;
16854;SDS011;8543;54.522;18.550;2023-02-28T06:17:59;6.00;;;3.60;;
16854;SDS011;8543;54.522;18.550;2023-02-28T06:20:26;6.80;;;3.90;;
16854;SDS011;8543;54.522;18.550;2023-02-28T06:22:54;7.20;;;3.80;;
16854;SDS011;8543;54.522;18.550;2023-02-28T06:25:21;7.00;;;3.90;;
16854;SDS011;8543;54.522;18.550;2023-02-28T06:27:46;7.70;;;4.50;;
16854;SDS011;8543;54.522;18.550;2023-02-28T06:30:13;7.50;;;4.40;;
16854;SDS011;8543;54.522;18.550;2023-02-28T06:32:38;8.60;;;4.60;;
16854;SDS011;8543;54.522;18.550;2023-02-28T06:35:04;7.80;;;4.70;;
16854;SDS011;8543;54.522;18.550;2023-02-28T06:37:30;8.50;;;5.50;;
16854;SDS011;8543;54.522;18.550;2023-02-28T06:39:56;6.50;;;5.00;;
16854;SDS011;8543;54.522;18.550;2023-02-28T06:42:23;6.40;;;4.70;;
16854;SDS011;8543;54.522;18.550;2023-02-28T06:44:54;8.30;;;5.30;;
16854;SDS011;8543;54.522;18.550;2023-02-28T06:47:20;8.90;;;4.70;;
16854;SDS011;8543;54.522;18.550;2023-02-28T06:49:46;7.60;;;5.10;;
16854;SDS011;8543;54.522;18.550;2023-02-28T06:52:11;6.50;;;4.90;;
16854;SDS011;8543;54.522;18.550;2023-02-28T06:54:37;7.80;;;5.30;;
16854;SDS011;8543;54.522;18.550;2023-02-28T06:57:02;6.70;;;4.70;;
16854;SDS011;8543;54.522;18.550;2023-02-28T06:59:28;6.30;;;4.70;;
16854;SDS011;8543;54.522;18.550;2023-02-28T07:01:53;6.60;;;4.90;;
16854;SDS011;8543;54.522;18.550;2023-02-28T07:04:20;6.30;;;5.50;;
16854;SDS011;8543;54.522;18.550;2023-02-28T07:06:45;7.10;;;5.30;;
16854;SDS011;8543;54.522;18.550;2023-02-28T07:09:11;6.70;;;5.40;;
16854;SDS011;8543;54.522;18.550;2023-02-28T07:11:36;7.90;;;5.50;;
16854;SDS011;8543;54.522;18.550;2023-02-28T07:14:02;6.20;;;5.20;;
16854;SDS011;8543;54.522;18.550;2023-02-28T07:16:27;6.50;;;5.30;;
16854;SDS011;8543;54.522;18.550;2023-02-28T07:18:53;6.80;;;5.10;;
16854;SDS011;8543;54.522;18.550;2023-02-28T07:21:19;6.80;;;5.20;;
16854;SDS011;8543;54.522;18.550;2023-02-28T07:23:45;5.80;;;4.60;;
16854;SDS011;8543;54.522;18.550;2023-02-28T07:26:11;5.70;;;4.60;;
16854;SDS011;8543;54.522;18.550;2023-02-28T07:28:39;7.00;;;4.70;;
16854;SDS011;8543;54.522;18.550;2023-02-28T07:31:07;5.30;;;4.80;;
16854;SDS011;8543;54.522;18.550;2023-02-28T07:33:33;6.20;;;4.20;;
16854;SDS011;8543;54.522;18.550;2023-02-28T07:36:09;5.80;;;4.00;;
16854;SDS011;8543;54.522;18.550;2023-02-28T07:38:40;5.40;;;4.00;;
16854;SDS011;8543;54.522;18.550;2023-02-28T07:41:07;6.00;;;4.10;;
16854;SDS011;8543;54.522;18.550;2023-02-28T07:43:33;6.40;;;4.40;;
16854;SDS011;8543;54.522;18.550;2023-02-28T07:46:06;5.30;;;4.30;;
16854;SDS011;8543;54.522;18.550;2023-02-28T07:48:35;5.10;;;4.10;;
16854;SDS011;8543;54.522;18.550;2023-02-28T07:51:01;5.70;;;4.60;;
16854;SDS011;8543;54.522;18.550;2023-02-28T07:53:28;7.00;;;4.70;;
16854;SDS011;8543;54.522;18.550;2023-02-28T07:55:55;5.70;;;4.70;;
16854;SDS011;8543;54.522;18.550;2023-02-28T07:58:21;5.60;;;4.50;;
16854;SDS011;8543;54.522;18.550;2023-02-28T08:00:47;5.70;;;5.10;;
16854;SDS011;8543;54.522;18.550;2023-02-28T08:03:12;7.00;;;5.10;;
16854;SDS011;8543;54.522;18.550;2023-02-28T08:05:41;5.60;;;4.80;;
16854;SDS011;8543;54.522;18.550;2023-02-28T08:08:07;6.10;;;4.70;;
16854;SDS011;8543;54.522;18.550;2023-02-28T08:10:33;7.40;;;5.50;;
16854;SDS011;8543;54.522;18.550;2023-02-28T08:12:59;6.30;;;4.70;;
16854;SDS011;8543;54.522;18.550;2023-02-28T08:15:25;6.30;;;5.70;;
16854;SDS011;8543;54.522;18.550;2023-02-28T08:17:50;8.40;;;4.80;;
16854;SDS011;8543;54.522;18.550;2023-02-28T08:20:15;7.40;;;5.50;;
16854;SDS011;8543;54.522;18.550;2023-02-28T08:22:41;9.20;;;6.10;;
16854;SDS011;8543;54.522;18.550;2023-02-28T08:25:07;8.00;;;5.40;;
16854;SDS011;8543;54.522;18.550;2023-02-28T08:27:33;9.50;;;6.40;;
16854;SDS011;8543;54.522;18.550;2023-02-28T08:29:59;8.40;;;6.00;;
16854;SDS011;8543;54.522;18.550;2023-02-28T08:32:26;8.50;;;6.00;;
16854;SDS011;8543;54.522;18.550;2023-02-28T08:34:51;10.40;;;6.50;;
16854;SDS011;8543;54.522;18.550;2023-02-28T08:37:17;10.80;;;5.90;;
16854;SDS011;8543;54.522;18.550;2023-02-28T08:39:42;11.10;;;6.50;;
16854;SDS011;8543;54.522;18.550;2023-02-28T08:42:07;11.60;;;6.30;;
16854;SDS011;8543;54.522;18.550;2023-02-28T08:44:33;9.50;;;5.90;;
16854;SDS011;8543;54.522;18.550;2023-02-28T08:46:59;8.00;;;4.70;;
16854;SDS011;8543;54.522;18.550;2023-02-28T08:49:25;10.90;;;5.40;;
16854;SDS011;8543;54.522;18.550;2023-02-28T08:51:50;7.50;;;4.80;;
16854;SDS011;8543;54.522;18.550;2023-02-28T08:54:16;6.80;;;3.80;;
16854;SDS011;8543;54.522;18.550;2023-02-28T08:56:44;4.80;;;3.20;;
16854;SDS011;8543;54.522;18.550;2023-02-28T08:59:11;6.30;;;3.00;;
16854;SDS011;8543;54.522;18.550;2023-02-28T09:01:37;6.00;;;2.80;;
16854;SDS011;8543;54.522;18.550;2023-02-28T09:04:02;4.80;;;2.80;;
16854;SDS011;8543;54.522;18.550;2023-02-28T09:06:28;4.70;;;2.50;;
16854;SDS011;8543;54.522;18.550;2023-02-28T09:08:56;6.60;;;2.80;;
16854;SDS011;8543;54.522;18.550;2023-02-28T09:11:23;7.10;;;2.40;;
16854;SDS011;8543;54.522;18.550;2023-02-28T09:13:48;5.30;;;2.80;;
16854;SDS011;8543;54.522;18.550;2023-02-28T09:16:14;6.40;;;3.20;;
16854;SDS011;8543;54.522;18.550;2023-02-28T09:18:41;6.60;;;3.00;;
16854;SDS011;8543;54.522;18.550;2023-02-28T09:21:07;6.90;;;3.20;;
16854;SDS011;8543;54.522;18.550;2023-02-28T09:23:38;6.00;;;2.70;;
16854;SDS011;8543;54.522;18.550;2023-02-28T09:26:04;5.20;;;2.60;;
16854;SDS011;8543;54.522;18.550;2023-02-28T09:28:30;6.20;;;2.90;;
16854;SDS011;8543;54.522;18.550;2023-02-28T09:30:56;5.70;;;3.00;;
16854;SDS011;8543;54.522;18.550;2023-02-28T09:33:23;5.60;;;2.70;;
16854;SDS011;8543;54.522;18.550;2023-02-28T09:35:49;5.50;;;2.80;;
16854;SDS011;8543;54.522;18.550;2023-02-28T09:38:15;7.00;;;2.90;;
16854;SDS011;8543;54.522;18.550;2023-02-28T09:41:03;5.40;;;3.10;;
16854;SDS011;8543;54.522;18.550;2023-02-28T09:43:33;6.80;;;3.00;;
16854;SDS011;8543;54.522;18.550;2023-02-28T09:48:39;6.20;;;2.90;;
16854;SDS011;8543;54.522;18.550;2023-02-28T09:53:41;5.70;;;2.70;;
16854;SDS011;8543;54.522;18.550;2023-02-28T09:56:20;6.90;;;3.20;;
16854;SDS011;8543;54.522;18.550;2023-02-28T10:04:03;5.40;;;2.70;;
16854;SDS011;8543;54.522;18.550;2023-02-28T10:06:50;6.20;;;3.20;;
16854;SDS011;8543;54.522;18.550;2023-02-28T10:09:24;6.90;;;3.00;;
16854;SDS011;8543;54.522;18.550;2023-02-28T10:11:52;5.40;;;2.80;;
16854;SDS011;8543;54.522;18.550;2023-02-28T10:14:19;6.40;;;3.20;;
16854;SDS011;8543;54.522;18.550;2023-02-28T10:19:25;5.70;;;2.90;;
16854;SDS011;8543;54.522;18.550;2023-02-28T10:24:39;7.70;;;3.40;;
16854;SDS011;8543;54.522;18.550;2023-02-28T10:29:46;7.20;;;3.50;;
16854;SDS011;8543;54.522;18.550;2023-02-28T10:32:18;6.50;;;3.20;;
16854;SDS011;8543;54.522;18.550;2023-02-28T10:35:06;8.00;;;3.20;;
16854;SDS011;8543;54.522;18.550;2023-02-28T10:37:40;5.90;;;2.90;;
16854;SDS011;8543;54.522;18.550;2023-02-28T10:42:54;7.40;;;2.90;;
16854;SDS011;8543;54.522;18.550;2023-02-28T10:45:31;6.60;;;2.70;;
16854;SDS011;8543;54.522;18.550;2023-02-28T10:48:03;6.10;;;2.70;;
16854;SDS011;8543;54.522;18.550;2023-02-28T10:50:37;5.70;;;2.40;;
16854;SDS011;8543;54.522;18.550;2023-02-28T10:55:58;6.20;;;2.70;;
16854;SDS011;8543;54.522;18.550;2023-02-28T10:58:34;6.70;;;2.60;;
16854;SDS011;8543;54.522;18.550;2023-02-28T11:01:15;5.60;;;2.90;;
16854;SDS011;8543;54.522;18.550;2023-02-28T11:03:45;5.10;;;3.00;;
16854;SDS011;8543;54.522;18.550;2023-02-28T11:06:15;5.20;;;2.80;;
16854;SDS011;8543;54.522;18.550;2023-02-28T11:09:02;5.50;;;2.70;;
16854;SDS011;8543;54.522;18.550;2023-02-28T11:11:31;4.60;;;2.60;;
16854;SDS011;8543;54.522;18.550;2023-02-28T11:14:14;6.60;;;2.60;;
16854;SDS011;8543;54.522;18.550;2023-02-28T11:16:44;5.90;;;2.90;;
16854;SDS011;8543;54.522;18.550;2023-02-28T11:19:16;5.20;;;3.00;;
16854;SDS011;8543;54.522;18.550;2023-02-28T11:22:02;5.50;;;2.90;;
16854;SDS011;8543;54.522;18.550;2023-02-28T11:27:01;6.70;;;3.00;;
16854;SDS011;8543;54.522;18.550;2023-02-28T11:29:28;6.70;;;3.30;;
16854;SDS011;8543;54.522;18.550;2023-02-28T11:34:34;6.40;;;3.40;;
16854;SDS011;8543;54.522;18.550;2023-02-28T11:37:00;6.50;;;3.00;;
16854;SDS011;8543;54.522;18.550;2023-02-28T11:39:29;6.40;;;3.10;;
16854;SDS011;8543;54.522;18.550;2023-02-28T11:44:38;7.40;;;3.30;;
16854;SDS011;8543;54.522;18.550;2023-02-28T11:52:34;7.10;;;3.70;;
16854;SDS011;8543;54.522;18.550;2023-02-28T11:55:23;6.40;;;3.40;;
16854;SDS011;8543;54.522;18.550;2023-02-28T11:57:59;6.30;;;3.30;;
16854;SDS011;8543;54.522;18.550;2023-02-28T12:00:31;6.30;;;3.40;;
16854;SDS011;8543;54.522;18.550;2023-02-28T12:11:30;8.10;;;3.00;;
16854;SDS011;8543;54.522;18.550;2023-02-28T12:27:40;4.80;;;2.90;;
16854;SDS011;8543;54.522;18.550;2023-02-28T12:33:05;6.00;;;2.80;;
16854;SDS011;8543;54.522;18.550;2023-02-28T12:35:57;7.40;;;2.90;;
16854;SDS011;8543;54.522;18.550;2023-02-28T12:38:26;5.20;;;2.70;;
16854;SDS011;8543;54.522;18.550;2023-02-28T12:41:00;5.90;;;2.80;;
16854;SDS011;8543;54.522;18.550;2023-02-28T12:43:32;6.60;;;3.00;;
16854;SDS011;8543;54.522;18.550;2023-02-28T12:46:06;6.10;;;3.30;;
16854;SDS011;8543;54.522;18.550;2023-02-28T12:51:18;8.40;;;3.10;;
16854;SDS011;8543;54.522;18.550;2023-02-28T13:04:52;7.80;;;3.50;;
16854;SDS011;8543;54.522;18.550;2023-02-28T13:10:38;8.80;;;3.70;;
16854;SDS011;8543;54.522;18.550;2023-02-28T13:13:19;8.20;;;3.50;;
16854;SDS011;8543;54.522;18.550;2023-02-28T13:18:39;7.60;;;3.30;;
16854;SDS011;8543;54.522;18.550;2023-02-28T13:21:08;7.60;;;3.50;;
16854;SDS011;8543;54.522;18.550;2023-02-28T13:26:30;7.90;;;3.00;;
16854;SDS011;8543;54.522;18.550;2023-02-28T13:32:30;7.50;;;3.70;;
16854;SDS011;8543;54.522;18.550;2023-02-28T13:34:36;5.70;;;3.10;;
16854;SDS011;8543;54.522;18.550;2023-02-28T13:47:39;6.70;;;3.00;;
16854;SDS011;8543;54.522;18.550;2023-02-28T13:50:26;6.10;;;3.30;;
16854;SDS011;8543;54.522;18.550;2023-02-28T13:53:27;6.10;;;3.00;;
16854;SDS011;8543;54.522;18.550;2023-02-28T14:01:59;8.70;;;3.20;;
16854;SDS011;8543;54.522;18.550;2023-02-28T14:04:48;6.90;;;3.10;;
16854;SDS011;8543;54.522;18.550;2023-02-28T14:07:31;6.20;;;2.90;;
16854;SDS011;8543;54.522;18.550;2023-02-28T14:10:03;8.90;;;3.30;;
16854;SDS011;8543;54.522;18.550;2023-02-28T14:15:39;5.60;;;2.60;;
16854;SDS011;8543;54.522;18.550;2023-02-28T14:18:28;5.80;;;2.70;;
16854;SDS011;8543;54.522;18.550;2023-02-28T14:21:08;6.20;;;2.90;;
16854;SDS011;8543;54.522;18.550;2023-02-28T14:26:46;6.00;;;2.90;;
16854;SDS011;8543;54.522;18.550;2023-02-28T14:38:13;6.50;;;2.80;;
16854;SDS011;8543;54.522;18.550;2023-02-28T14:40:43;6.50;;;2.70;;
16854;SDS011;8543;54.522;18.550;2023-02-28T14:43:28;4.60;;;2.30;;
16854;SDS011;8543;54.522;18.550;2023-02-28T14:45:55;6.80;;;2.80;;
16854;SDS011;8543;54.522;18.550;2023-02-28T14:48:22;6.50;;;2.60;;
16854;SDS011;8543;54.522;18.550;2023-02-28T14:50:51;5.00;;;2.60;;
16854;SDS011;8543;54.522;18.550;2023-02-28T14:53:18;8.40;;;2.70;;
16854;SDS011;8543;54.522;18.550;2023-02-28T14:55:46;5.50;;;2.80;;
16854;SDS011;8543;54.522;18.550;2023-02-28T14:58:50;5.70;;;2.90;;
16854;SDS011;8543;54.522;18.550;2023-02-28T15:01:04;5.70;;;2.80;;
16854;SDS011;8543;54.522;18.550;2023-02-28T15:03:33;6.60;;;3.10;;
16854;SDS011;8543;54.522;18.550;2023-02-28T15:06:00;7.60;;;3.10;;
16854;SDS011;8543;54.522;18.550;2023-02-28T15:08:30;7.70;;;3.50;;
16854;SDS011;8543;54.522;18.550;2023-02-28T15:11:01;5.40;;;2.80;;
16854;SDS011;8543;54.522;18.550;2023-02-28T15:13:33;6.80;;;3.20;;
16854;SDS011;8543;54.522;18.550;2023-02-28T15:16:02;5.40;;;2.70;;
16854;SDS011;8543;54.522;18.550;2023-02-28T15:21:20;6.40;;;2.90;;
16854;SDS011;8543;54.522;18.550;2023-02-28T15:23:57;6.90;;;3.20;;
16854;SDS011;8543;54.522;18.550;2023-02-28T15:26:26;7.50;;;3.50;;
16854;SDS011;8543;54.522;18.550;2023-02-28T15:29:01;7.20;;;3.20;;
16854;SDS011;8543;54.522;18.550;2023-02-28T15:31:33;6.70;;;3.50;;
16854;SDS011;8543;54.522;18.550;2023-02-28T15:34:04;6.30;;;3.70;;
16854;SDS011;8543;54.522;18.550;2023-02-28T15:36:31;6.80;;;3.20;;
16854;SDS011;8543;54.522;18.550;2023-02-28T15:38:58;6.40;;;3.40;;
16854;SDS011;8543;54.522;18.550;2023-02-28T15:41:26;10.10;;;4.00;;
16854;SDS011;8543;54.522;18.550;2023-02-28T15:49:26;8.50;;;3.90;;
16854;SDS011;8543;54.522;18.550;2023-02-28T15:51:53;6.50;;;3.70;;
16854;SDS011;8543;54.522;18.550;2023-02-28T15:54:22;7.10;;;3.40;;
16854;SDS011;8543;54.522;18.550;2023-02-28T15:57:05;6.80;;;3.40;;
16854;SDS011;8543;54.522;18.550;2023-02-28T15:59:33;7.80;;;3.50;;
16854;SDS011;8543;54.522;18.550;2023-02-28T16:02:02;7.00;;;3.50;;
16854;SDS011;8543;54.522;18.550;2023-02-28T16:04:34;6.80;;;3.30;;
16854;SDS011;8543;54.522;18.550;2023-02-28T16:07:03;6.10;;;3.00;;
16854;SDS011;8543;54.522;18.550;2023-02-28T16:09:31;6.80;;;3.60;;
16854;SDS011;8543;54.522;18.550;2023-02-28T16:11:59;7.80;;;3.40;;
16854;SDS011;8543;54.522;18.550;2023-02-28T16:14:30;5.30;;;2.80;;
16854;SDS011;8543;54.522;18.550;2023-02-28T16:16:57;7.00;;;3.20;;
16854;SDS011;8543;54.522;18.550;2023-02-28T16:19:29;6.60;;;3.30;;
16854;SDS011;8543;54.522;18.550;2023-02-28T16:21:55;7.50;;;3.20;;
16854;SDS011;8543;54.522;18.550;2023-02-28T16:24:21;6.00;;;3.30;;
16854;SDS011;8543;54.522;18.550;2023-02-28T16:26:47;8.10;;;3.40;;
16854;SDS011;8543;54.522;18.550;2023-02-28T16:29:33;6.30;;;3.20;;
16854;SDS011;8543;54.522;18.550;2023-02-28T16:32:00;6.70;;;3.60;;
16854;SDS011;8543;54.522;18.550;2023-02-28T16:34:27;6.60;;;3.60;;
16854;SDS011;8543;54.522;18.550;2023-02-28T16:36:53;7.10;;;3.20;;
16854;SDS011;8543;54.522;18.550;2023-02-28T16:39:18;7.90;;;3.40;;
16854;SDS011;8543;54.522;18.550;2023-02-28T16:41:47;6.10;;;3.10;;
16854;SDS011;8543;54.522;18.550;2023-02-28T16:44:27;6.00;;;3.10;;
16854;SDS011;8543;54.522;18.550;2023-02-28T16:46:54;7.90;;;3.40;;
16854;SDS011;8543;54.522;18.550;2023-02-28T16:49:20;7.70;;;3.80;;
16854;SDS011;8543;54.522;18.550;2023-02-28T16:51:46;7.40;;;3.50;;
16854;SDS011;8543;54.522;18.550;2023-02-28T16:54:11;9.00;;;3.70;;
16854;SDS011;8543;54.522;18.550;2023-02-28T16:56:52;7.30;;;3.10;;
16854;SDS011;8543;54.522;18.550;2023-02-28T16:59:24;6.00;;;3.10;;
16854;SDS011;8543;54.522;18.550;2023-02-28T17:01:50;8.70;;;3.70;;
16854;SDS011;8543;54.522;18.550;2023-02-28T17:04:16;7.80;;;3.60;;
16854;SDS011;8543;54.522;18.550;2023-02-28T17:06:42;7.10;;;3.40;;
16854;SDS011;8543;54.522;18.550;2023-02-28T17:09:08;5.80;;;3.00;;
16854;SDS011;8543;54.522;18.550;2023-02-28T17:11:40;7.30;;;3.40;;
16854;SDS011;8543;54.522;18.550;2023-02-28T17:14:06;8.30;;;3.70;;
16854;SDS011;8543;54.522;18.550;2023-02-28T17:16:35;8.50;;;3.40;;
16854;SDS011;8543;54.522;18.550;2023-02-28T17:19:03;7.90;;;3.60;;
16854;SDS011;8543;54.522;18.550;2023-02-28T17:21:31;7.00;;;3.50;;
16854;SDS011;8543;54.522;18.550;2023-02-28T17:23:58;7.60;;;3.10;;
16854;SDS011;8543;54.522;18.550;2023-02-28T17:26:26;7.00;;;2.80;;
16854;SDS011;8543;54.522;18.550;2023-02-28T17:29:14;7.50;;;3.30;;
16854;SDS011;8543;54.522;18.550;2023-02-28T17:31:41;9.10;;;3.30;;
16854;SDS011;8543;54.522;18.550;2023-02-28T17:34:07;8.80;;;3.80;;
16854;SDS011;8543;54.522;18.550;2023-02-28T17:36:33;7.30;;;3.30;;
16854;SDS011;8543;54.522;18.550;2023-02-28T17:38:59;9.50;;;3.60;;
16854;SDS011;8543;54.522;18.550;2023-02-28T17:41:24;8.60;;;3.90;;
16854;SDS011;8543;54.522;18.550;2023-02-28T17:43:51;10.70;;;4.00;;
16854;SDS011;8543;54.522;18.550;2023-02-28T17:46:18;11.60;;;4.30;;